Live aus Altenrhein
LIVE
LSZR 161420Z VRB03KT 9999 FEW050 25/14 Q1021 NOSIG RMK L

People´s Info Center:

Öffnungszeiten Mo-Fr, 8-18 Uhr

 

info@peoples.ch

 
Aus Österreich:

T: +43 (0)5572 203 610

 

Aus CH / LI / DE:

T: +41 (0)71 858 51 60

 

Aktueller Timetable / Live Flugstatus

Flughafen St.Gallen-Altenrhein.


Ankünfte in St. Gallen-Altenrhein
Zeit #flightinfo:label:est# von Flug Info
09:10 09:10 Wien PE101
gelandet
20:55 20:55 Wien PE107
planmässig

Shuttlebus online buchen

Altenrhein - Vorarlberg ->hier buchen

 

Abflüge von St. Gallen-Altenrhein
Zeit #flightinfo:label:est# nach Flug Info
06:30 06:30 Wien PE100
gelandet
18:15 18:15 Wien PE106
planmässig

People's Info Center

T. +43 (0)5572 203 610

T. +41 (0)71 858 51 60